Time;durP1;ratioP1;P1;durP2;ratioP2;P2;SDS_P1;SDS_P2;PMS_P1;PMS_P2;Temp;Humidity;BMP_temperature;BMP_pressure;BME280_temperature;BME280_humidity;BME280_pressure;Samples;Min_cycle;Max_cycle;Signal;HPM_P1;HPM_P2
2023/08/23 00:00:45;;;;;;;0.90;0.90;;;;;;;25.32;74.12;95712.88;4347931;32;20196;-65
2023/08/23 00:03:12;;;;;;;1.70;1.40;;;;;;;25.31;74.57;95705.09;4338639;32;20225;-64
2023/08/23 00:05:37;;;;;;;0.87;0.87;;;;;;;25.34;74.33;95702.41;4329774;32;20207;-65
2023/08/23 00:08:03;;;;;;;1.27;1.27;;;;;;;25.33;74.44;95695.41;4313256;32;20190;-63
2023/08/23 00:10:28;;;;;;;1.40;1.40;;;;;;;25.29;74.72;95694.59;4332308;32;20306;-61
2023/08/23 00:12:56;;;;;;;1.57;1.53;;;;;;;25.28;74.92;95692.25;4323564;32;20205;-65
2023/08/23 00:15:24;;;;;;;1.43;1.43;;;;;;;25.27;75.23;95696.13;4350016;32;20193;-65
2023/08/23 00:17:50;;;;;;;1.73;1.63;;;;;;;25.25;75.30;95701.94;4331774;32;20266;-65
2023/08/23 00:20:18;;;;;;;3.03;2.37;;;;;;;25.25;75.55;95693.03;4352093;32;20200;-65
2023/08/23 00:22:46;;;;;;;2.43;1.13;;;;;;;25.22;75.80;95693.78;4324690;32;20193;-65
2023/08/23 00:25:12;;;;;;;1.20;1.20;;;;;;;25.26;75.40;95695.34;4348517;32;20288;-65
2023/08/23 00:27:40;;;;;;;1.60;1.40;;;;;;;25.24;75.68;95692.25;4359807;32;20185;-65
2023/08/23 00:30:07;;;;;;;1.53;1.53;;;;;;;25.26;75.45;95695.34;4345030;32;20284;-65
2023/08/23 00:32:32;;;;;;;2.00;1.90;;;;;;;25.23;75.84;95696.09;4359991;32;20299;-64
2023/08/23 00:34:57;;;;;;;1.57;1.57;;;;;;;25.25;75.85;95691.09;4317137;32;20237;-65
2023/08/23 00:37:24;;;;;;;1.33;1.33;;;;;;;25.23;75.98;95693.41;4326217;32;20217;-64
2023/08/23 00:39:51;;;;;;;1.17;1.17;;;;;;;25.22;76.03;95694.56;4290734;32;20178;-65
2023/08/23 00:42:16;;;;;;;2.63;1.80;;;;;;;25.23;75.96;95698.81;4323728;32;20186;-65
2023/08/23 00:44:43;;;;;;;1.53;1.43;;;;;;;25.22;75.94;95702.69;4323794;32;20243;-64
2023/08/23 00:47:09;;;;;;;2.00;1.40;;;;;;;25.22;76.03;95699.97;4330037;32;20189;-65
2023/08/23 00:49:36;;;;;;;2.30;2.20;;;;;;;25.21;75.95;95705.78;4354348;32;20193;-65
2023/08/23 00:52:14;;;;;;;1.47;1.47;;;;;;;25.20;76.11;95702.28;4305466;32;20208;-64
2023/08/23 00:54:41;;;;;;;1.53;1.53;;;;;;;25.18;76.42;95701.09;4357003;32;20185;-65
2023/08/23 00:57:12;;;;;;;3.20;1.93;;;;;;;25.16;76.50;95698.78;4366567;32;20234;-64
2023/08/23 00:59:47;;;;;;;2.00;2.00;;;;;;;25.10;76.98;95697.59;4346196;32;20222;-64
2023/08/23 01:02:15;;;;;;;1.90;1.80;;;;;;;25.13;76.73;95698.78;4338355;32;20204;-65
2023/08/23 01:04:42;;;;;;;1.80;1.70;;;;;;;25.09;76.87;95697.97;4352235;32;20197;-64
2023/08/23 01:07:24;;;;;;;1.53;1.47;;;;;;;25.09;77.04;95692.53;4322379;32;20260;-64
2023/08/23 01:10:23;;;;;;;1.23;1.23;;;;;;;25.07;77.15;95698.34;4311099;32;20274;-65
2023/08/23 01:13:01;;;;;;;1.80;1.70;;;;;;;25.07;77.08;95697.56;4293524;32;20273;-64
2023/08/23 01:15:28;;;;;;;1.20;1.20;;;;;;;25.08;77.09;95697.19;4328080;32;20189;-65
2023/08/23 01:17:56;;;;;;;1.77;1.77;;;;;;;25.04;77.37;95690.16;4348024;32;20189;-64
2023/08/23 01:20:23;;;;;;;1.63;1.53;;;;;;;25.01;77.59;95688.97;4325953;32;20267;-64
2023/08/23 01:23:16;;;;;;;2.13;2.03;;;;;;;25.01;77.49;95691.69;4347253;32;20276;-65
2023/08/23 01:25:44;;;;;;;1.60;1.60;;;;;;;25.02;77.33;95685.09;4305072;32;20256;-64
2023/08/23 01:28:10;;;;;;;2.33;2.23;;;;;;;24.96;77.49;95686.59;4329577;32;20266;-64
2023/08/23 01:30:46;;;;;;;2.93;2.07;;;;;;;24.97;77.36;95688.94;4306555;32;20202;-64
2023/08/23 01:33:22;;;;;;;1.77;1.67;;;;;;;24.96;77.40;95694.75;4322716;32;20208;-65
2023/08/23 01:36:05;;;;;;;1.20;1.20;;;;;;;24.97;77.28;95688.94;4314399;32;20268;-65
2023/08/23 01:38:34;;;;;;;2.00;1.90;;;;;;;24.97;77.29;95699.81;4338899;32;20192;-64
2023/08/23 01:41:00;;;;;;;2.10;2.00;;;;;;;24.97;77.34;95704.44;4342848;32;20189;-63
2023/08/23 01:43:28;;;;;;;1.90;1.80;;;;;;;24.93;77.46;95709.06;4335597;32;20265;-64
2023/08/23 01:45:55;;;;;;;1.97;1.87;;;;;;;24.97;77.43;95712.59;4320953;32;20198;-64
2023/08/23 01:48:21;;;;;;;1.30;1.30;;;;;;;24.92;77.82;95713.72;4326472;32;20212;-64
2023/08/23 01:50:50;;;;;;;1.87;1.77;;;;;;;24.94;77.91;95714.12;4350564;32;20192;-64
2023/08/23 01:53:15;;;;;;;2.67;1.83;;;;;;;24.89;78.26;95713.69;4290623;33;20217;-64
2023/08/23 01:55:41;;;;;;;6.83;2.47;;;;;;;24.92;78.24;95712.94;4339596;32;20197;-64
2023/08/23 01:58:10;;;;;;;1.40;1.30;;;;;;;24.90;78.10;95705.16;4348877;32;20221;-65
2023/08/23 02:00:45;;;;;;;1.33;1.30;;;;;;;24.91;78.01;95701.28;4352491;32;20189;-64
2023/08/23 02:03:10;;;;;;;1.77;1.67;;;;;;;24.89;78.14;95692.75;4318848;32;20228;-64
2023/08/23 02:05:40;;;;;;;1.80;1.70;;;;;;;24.91;78.03;95703.22;4325750;32;20190;-64
2023/08/23 02:08:06;;;;;;;1.97;1.87;;;;;;;24.93;78.04;95695.50;4361555;32;20193;-64
2023/08/23 02:10:36;;;;;;;1.03;1.03;;;;;;;24.92;77.91;95692.00;4316452;32;20282;-64
2023/08/23 02:13:06;;;;;;;1.33;1.33;;;;;;;24.92;77.86;95686.56;4340778;32;20225;-62
2023/08/23 02:15:34;;;;;;;1.67;1.67;;;;;;;24.94;77.94;95683.47;4331405;32;20285;-64
2023/08/23 02:18:01;;;;;;;1.77;1.67;;;;;;;24.95;78.05;95690.47;4347277;32;20267;-64
2023/08/23 02:20:27;;;;;;;2.40;2.30;;;;;;;24.91;78.29;95685.00;4339448;32;20189;-65
2023/08/23 02:22:53;;;;;;;1.33;1.33;;;;;;;24.89;78.45;95681.88;4315211;32;20191;-64
2023/08/23 02:25:20;;;;;;;13.13;1.63;;;;;;;24.88;78.30;95685.75;4350336;32;20256;-65
2023/08/23 02:27:46;;;;;;;2.10;2.00;;;;;;;24.83;78.36;95693.47;4338476;32;20185;-65
2023/08/23 02:30:14;;;;;;;1.10;1.10;;;;;;;24.87;78.38;95696.97;4343552;32;20193;-65
2023/08/23 02:32:39;;;;;;;1.70;1.63;;;;;;;24.81;78.60;95699.25;4329438;32;20201;-65
2023/08/23 02:35:04;;;;;;;2.13;2.03;;;;;;;24.79;78.98;95707.00;4351216;32;20185;-65
2023/08/23 02:37:30;;;;;;;2.90;2.33;;;;;;;24.77;79.12;95703.09;4344156;32;20177;-64
2023/08/23 02:39:58;;;;;;;1.90;1.80;;;;;;;24.77;79.04;95713.94;4357845;32;20216;-65
2023/08/23 02:42:29;;;;;;;1.10;1.10;;;;;;;24.80;78.79;95705.84;4355514;32;20241;-65
2023/08/23 02:44:55;;;;;;;1.87;1.77;;;;;;;24.85;78.10;95704.72;4307046;32;20200;-65
2023/08/23 02:47:24;;;;;;;4.07;1.90;;;;;;;24.86;77.82;95709.00;4328007;32;20405;-64
2023/08/23 02:49:50;;;;;;;1.13;1.10;;;;;;;24.90;77.11;95718.75;4356105;32;20280;-64
2023/08/23 02:52:17;;;;;;;1.93;1.83;;;;;;;24.92;77.09;95711.00;4350065;32;20204;-64
2023/08/23 02:54:42;;;;;;;2.60;2.40;;;;;;;24.87;76.82;95710.56;4345662;32;20300;-64
2023/08/23 02:57:09;;;;;;;1.93;1.83;;;;;;;24.87;77.12;95711.34;4321249;32;20208;-64
2023/08/23 02:59:36;;;;;;;2.83;1.20;;;;;;;24.89;76.87;95716.41;4357694;32;20196;-65
2023/08/23 03:02:05;;;;;;;1.30;1.30;;;;;;;24.88;76.88;95701.25;4329277;32;20256;-64
2023/08/23 03:04:31;;;;;;;1.67;1.57;;;;;;;24.88;76.44;95703.97;4309028;33;20204;-64
2023/08/23 03:07:00;;;;;;;2.30;1.20;;;;;;;24.88;76.90;95710.19;4321928;32;20174;-65
2023/08/23 03:09:25;;;;;;;13.97;2.63;;;;;;;24.82;77.29;95697.31;4358325;32;20353;-64
2023/08/23 03:11:53;;;;;;;1.10;1.10;;;;;;;24.79;77.51;95695.34;4354736;32;20330;-65
2023/08/23 03:14:22;;;;;;;1.50;1.40;;;;;;;24.77;77.18;95690.31;4343576;32;20252;-65
2023/08/23 03:16:48;;;;;;;1.73;1.47;;;;;;;24.78;77.72;95691.88;4306020;33;20196;-65
2023/08/23 03:19:14;;;;;;;2.00;1.90;;;;;;;24.76;78.09;95690.69;4336427;32;20201;-65
2023/08/23 03:21:41;;;;;;;0.70;0.70;;;;;;;24.77;77.51;95690.31;4336763;32;20267;-65
2023/08/23 03:24:08;;;;;;;0.87;0.87;;;;;;;24.79;77.82;95693.44;4319410;32;20236;-65
2023/08/23 03:26:35;;;;;;;1.00;1.00;;;;;;;24.78;77.65;95701.94;4333186;32;20211;-65
2023/08/23 03:29:00;;;;;;;4.23;1.53;;;;;;;24.76;77.84;95701.53;4357954;32;20212;-65
2023/08/23 03:31:25;;;;;;;1.67;1.67;;;;;;;24.76;77.83;95698.81;4330037;32;20185;-65
2023/08/23 03:33:52;;;;;;;28.30;2.40;;;;;;;24.74;78.06;95701.13;4328586;32;20240;-65
2023/08/23 03:36:17;;;;;;;1.57;1.57;;;;;;;24.77;78.24;95708.53;4334703;32;20250;-65
2023/08/23 03:38:45;;;;;;;4.27;1.77;;;;;;;24.76;78.13;95704.25;4347313;32;20228;-65
2023/08/23 03:41:14;;;;;;;3.03;1.77;;;;;;;24.78;77.96;95707.38;4354568;32;20279;-64
2023/08/23 03:43:41;;;;;;;10.20;2.73;;;;;;;24.75;78.24;95722.47;4345569;32;20209;-64
2023/08/23 03:46:11;;;;;;;1.20;1.20;;;;;;;24.79;78.04;95723.28;4338906;32;20232;-64
2023/08/23 03:48:42;;;;;;;1.23;1.23;;;;;;;24.77;78.18;95738.38;4330006;32;20207;-64
2023/08/23 03:51:10;;;;;;;1.20;1.20;;;;;;;24.72;78.43;95717.03;4354669;32;20193;-64
2023/08/23 03:53:36;;;;;;;0.70;0.70;;;;;;;24.70;78.66;95722.06;4281575;32;20193;-64
2023/08/23 03:56:03;;;;;;;2.00;1.90;;;;;;;24.72;78.60;95723.25;4361556;32;20260;-64
2023/08/23 03:58:34;;;;;;;0.83;0.83;;;;;;;24.69;78.63;95732.13;4339231;32;20196;-64
2023/08/23 04:00:59;;;;;;;1.50;1.43;;;;;;;24.72;78.66;95725.94;4325264;32;20220;-64
2023/08/23 04:03:35;;;;;;;1.57;1.47;;;;;;;24.75;78.85;95729.81;4316712;32;20189;-64
2023/08/23 04:06:03;;;;;;;1.77;1.67;;;;;;;24.70;79.06;95722.06;4345461;32;20188;-64
2023/08/23 04:08:30;;;;;;;5.73;0.87;;;;;;;24.72;78.97;95727.88;4298639;33;20249;-64
2023/08/23 04:11:03;;;;;;;1.10;1.10;;;;;;;24.72;78.92;95725.16;4324098;32;20229;-65
2023/08/23 04:13:33;;;;;;;1.13;1.03;;;;;;;24.72;78.87;95720.53;4315935;32;20185;-62
2023/08/23 04:16:02;;;;;;;1.50;1.50;;;;;;;24.75;79.00;95729.81;4353511;32;20306;-62
2023/08/23 04:18:28;;;;;;;6.33;1.87;;;;;;;24.74;79.36;95722.84;4341159;32;20184;-65
2023/08/23 04:21:02;;;;;;;3.73;1.10;;;;;;;24.73;79.24;95722.09;4326960;32;20199;-65
2023/08/23 04:23:27;;;;;;;1.47;1.47;;;;;;;24.73;79.15;95726.72;4273821;33;20198;-65
2023/08/23 04:25:57;;;;;;;2.50;1.47;;;;;;;24.72;79.43;95733.31;4303175;32;20216;-65
2023/08/23 04:28:24;;;;;;;1.00;1.00;;;;;;;24.70;79.56;95727.47;4301363;32;20248;-65
2023/08/23 04:31:08;;;;;;;2.93;2.20;;;;;;;24.64;80.08;95727.81;4359657;32;20264;-65
2023/08/23 04:33:35;;;;;;;1.23;1.23;;;;;;;24.69;79.62;95731.34;4305591;32;20213;-64
2023/08/23 04:36:04;;;;;;;1.93;1.83;;;;;;;24.69;79.42;95725.91;4308320;32;20212;-65
2023/08/23 04:38:31;;;;;;;1.90;1.83;;;;;;;24.66;79.68;95725.50;4317301;32;20188;-62
2023/08/23 04:41:01;;;;;;;1.10;1.10;;;;;;;24.68;79.45;95733.28;4334271;32;20186;-64
2023/08/23 04:43:28;;;;;;;1.00;0.97;;;;;;;24.67;79.38;95732.50;4321036;32;20190;-65
2023/08/23 04:45:54;;;;;;;1.20;1.20;;;;;;;24.70;79.32;95730.19;4321396;32;20182;-65
2023/08/23 04:48:37;;;;;;;1.00;1.00;;;;;;;24.69;79.46;95734.06;4300441;32;20286;-65
2023/08/23 04:51:09;;;;;;;2.63;2.43;;;;;;;24.66;79.72;95730.16;4295918;32;20238;-64
2023/08/23 04:53:39;;;;;;;1.83;1.73;;;;;;;24.67;79.57;95729.00;4308056;32;20194;-64
2023/08/23 04:56:06;;;;;;;1.53;1.43;;;;;;;24.58;80.45;95736.66;4316033;32;20192;-64
2023/08/23 04:58:33;;;;;;;1.67;1.57;;;;;;;24.58;80.23;95729.28;4328644;32;20228;-64
2023/08/23 05:01:07;;;;;;;0.80;0.80;;;;;;;24.60;79.86;95731.63;4330328;32;20252;-65
2023/08/23 05:03:35;;;;;;;2.50;1.73;;;;;;;24.60;79.82;95732.41;4303389;32;20220;-64
2023/08/23 05:06:08;;;;;;;0.77;0.77;;;;;;;24.61;79.69;95730.47;4284059;32;20223;-63
2023/08/23 05:08:35;;;;;;;1.40;1.40;;;;;;;24.63;79.63;95728.19;4319368;32;20185;-64
2023/08/23 05:11:01;;;;;;;1.63;1.57;;;;;;;24.60;79.85;95727.00;4332531;32;20186;-63
2023/08/23 05:13:27;;;;;;;1.30;1.30;;;;;;;24.61;80.05;95731.25;4309207;32;20196;-65
2023/08/23 05:15:53;;;;;;;0.80;0.80;;;;;;;24.59;79.99;95733.56;4311910;32;20189;-65
2023/08/23 05:18:20;;;;;;;1.27;1.27;;;;;;;24.59;80.08;95733.56;4315990;32;20663;-65
2023/08/23 05:20:51;;;;;;;3.90;2.70;;;;;;;24.55;80.31;95738.19;4318420;32;20207;-64
2023/08/23 05:23:17;;;;;;;1.37;1.30;;;;;;;24.57;80.16;95746.72;4336261;32;20190;-64
2023/08/23 05:25:44;;;;;;;0.90;0.90;;;;;;;24.58;80.11;95745.56;4327308;32;20209;-64
2023/08/23 05:28:11;;;;;;;1.43;1.30;;;;;;;24.60;79.94;95758.78;4320854;32;20268;-64
2023/08/23 05:30:41;;;;;;;2.33;1.57;;;;;;;24.62;80.01;95756.47;4287784;33;20208;-65
2023/08/23 05:33:08;;;;;;;1.80;1.70;;;;;;;24.50;80.87;95754.81;4313993;32;20202;-64
2023/08/23 05:35:35;;;;;;;2.07;1.83;;;;;;;24.45;81.25;95749.72;4294673;32;20245;-64
2023/08/23 05:38:00;;;;;;;1.90;1.57;;;;;;;24.45;80.90;95738.88;4281474;32;20186;-64
2023/08/23 05:40:26;;;;;;;3.80;2.23;;;;;;;24.46;80.79;95737.72;4322108;32;20202;-65
2023/08/23 05:42:54;;;;;;;1.37;1.27;;;;;;;24.48;80.73;95740.84;4308887;33;20190;-65
2023/08/23 05:45:26;;;;;;;3.73;2.47;;;;;;;24.45;80.84;95736.16;4319342;32;20269;-65
2023/08/23 05:47:54;;;;;;;1.80;1.70;;;;;;;24.41;80.99;95737.25;4295997;32;20208;-64
2023/08/23 05:50:23;;;;;;;1.00;1.00;;;;;;;24.43;80.93;95738.44;4307639;32;20250;-65
2023/08/23 05:52:49;;;;;;;4.90;2.53;;;;;;;24.45;80.76;95741.56;4294035;32;20189;-64
2023/08/23 05:55:15;;;;;;;1.67;1.57;;;;;;;24.49;80.86;95738.91;4288188;32;20274;-64
2023/08/23 05:57:40;;;;;;;1.13;1.13;;;;;;;24.45;80.73;95738.88;4326751;32;20200;-65
2023/08/23 06:00:07;;;;;;;6.60;2.23;;;;;;;24.49;80.48;95744.34;4306792;32;20225;-65
2023/08/23 06:02:33;;;;;;;1.07;1.07;;;;;;;24.51;80.29;95748.25;4289501;33;20257;-63
2023/08/23 06:05:00;;;;;;;2.50;2.20;;;;;;;24.49;80.42;95753.25;4304652;33;20249;-65
2023/08/23 06:07:27;;;;;;;2.77;1.30;;;;;;;24.51;80.54;95753.66;4314563;32;20201;-65
2023/08/23 06:09:55;;;;;;;0.77;0.77;;;;;;;24.50;80.86;95749.38;4308001;32;20249;-65
2023/08/23 06:12:24;;;;;;;1.87;1.37;;;;;;;24.42;81.08;95745.03;4302748;32;20225;-65
2023/08/23 06:14:51;;;;;;;1.20;1.20;;;;;;;24.46;80.63;95742.34;4292959;32;20289;-65
2023/08/23 06:17:17;;;;;;;2.17;2.07;;;;;;;24.42;80.79;95739.59;4293025;32;20231;-65
2023/08/23 06:19:45;;;;;;;1.30;1.30;;;;;;;24.39;80.93;95734.91;4284604;32;20552;-65
2023/08/23 06:22:11;;;;;;;1.53;1.53;;;;;;;24.42;80.93;95734.19;4285489;32;20248;-65
2023/08/23 06:24:40;;;;;;;0.83;0.83;;;;;;;24.47;80.55;95736.56;4322195;32;20225;-64
2023/08/23 06:27:05;;;;;;;1.13;1.13;;;;;;;24.47;80.60;95739.28;4313942;32;20212;-65
2023/08/23 06:29:30;;;;;;;3.20;2.67;;;;;;;24.50;80.33;95730.41;4282700;32;20253;-64
2023/08/23 06:31:57;;;;;;;1.83;1.73;;;;;;;24.53;80.33;95734.28;4298287;32;20199;-65
2023/08/23 06:34:24;;;;;;;1.97;1.87;;;;;;;24.51;80.49;95737.38;4276450;32;20257;-65
2023/08/23 06:36:49;;;;;;;1.80;1.70;;;;;;;24.53;80.05;95735.06;4289073;32;20284;-65
2023/08/23 06:39:17;;;;;;;1.17;1.13;;;;;;;24.53;80.08;95723.41;4321000;32;20209;-65
2023/08/23 06:41:45;;;;;;;1.37;1.37;;;;;;;24.60;79.65;95734.34;4279954;33;20248;-65
2023/08/23 06:44:10;;;;;;;2.43;2.17;;;;;;;24.63;79.59;95736.31;4328477;32;20189;-65
2023/08/23 06:46:37;;;;;;;1.90;1.73;;;;;;;24.60;80.08;95735.13;4358437;32;20216;-65
2023/08/23 06:49:06;;;;;;;2.07;1.97;;;;;;;24.64;79.66;95746.03;4334332;32;20203;-64
2023/08/23 06:51:31;;;;;;;1.73;1.67;;;;;;;24.70;79.51;95749.19;4307033;32;20249;-65
2023/08/23 06:53:58;;;;;;;1.47;1.47;;;;;;;24.77;79.04;95750.03;4320026;32;20242;-65
2023/08/23 06:56:26;;;;;;;10.63;2.23;;;;;;;24.80;79.24;95749.28;4290703;32;20209;-65
2023/08/23 06:58:53;;;;;;;1.70;1.67;;;;;;;24.85;78.69;95745.44;4348505;32;20185;-64
2023/08/23 07:01:19;;;;;;;1.83;1.73;;;;;;;24.83;79.77;95748.53;4345721;32;20186;-64
2023/08/23 07:03:46;;;;;;;1.37;1.37;;;;;;;24.86;79.67;95752.44;4310824;32;20194;-65
2023/08/23 07:06:14;;;;;;;1.43;1.43;;;;;;;24.90;79.46;95753.25;4353392;32;20184;-65
2023/08/23 07:08:45;;;;;;;1.33;1.33;;;;;;;24.90;79.11;95754.03;4316672;32;20315;-65
2023/08/23 07:11:12;;;;;;;1.30;1.20;;;;;;;24.92;79.85;95759.88;4326667;32;20236;-65
2023/08/23 07:13:40;;;;;;;2.07;1.97;;;;;;;24.91;80.03;95761.03;4306822;32;20193;-65
2023/08/23 07:16:05;;;;;;;1.70;1.60;;;;;;;24.92;79.58;95767.22;4323521;32;20235;-65
2023/08/23 07:18:32;;;;;;;2.53;1.97;;;;;;;24.93;79.53;95766.09;4329638;32;20177;-63
2023/08/23 07:21:02;;;;;;;1.13;1.13;;;;;;;24.92;78.97;95759.88;4360805;32;20185;-64
2023/08/23 07:23:29;;;;;;;22.03;18.43;;;;;;;24.93;79.14;95760.66;4308652;32;20241;-65
2023/08/23 07:25:57;;;;;;;9.53;7.77;;;;;;;24.97;78.41;95764.19;4357562;32;20189;-65
2023/08/23 07:28:30;;;;;;;2.33;1.33;;;;;;;24.97;78.70;95756.03;4285680;32;20197;-65
2023/08/23 07:30:57;;;;;;;1.17;1.17;;;;;;;25.01;77.91;95762.28;4300920;32;20186;-65
2023/08/23 07:33:28;;;;;;;1.90;1.90;;;;;;;25.03;78.32;95765.41;4314589;32;20252;-65
2023/08/23 07:36:14;;;;;;;1.10;1.10;;;;;;;24.99;78.77;95765.38;4307847;33;20189;-65
2023/08/23 07:38:40;;;;;;;1.30;1.30;;;;;;;25.04;78.19;95764.25;4282749;32;20182;-64
2023/08/23 07:41:08;;;;;;;1.27;1.27;;;;;;;25.07;77.92;95768.94;4337004;32;20319;-64
2023/08/23 07:43:35;;;;;;;1.50;1.50;;;;;;;25.03;77.17;95770.84;4317259;32;20217;-65
2023/08/23 07:46:03;;;;;;;2.87;2.67;;;;;;;24.96;77.73;95768.06;4298581;33;20224;-64
2023/08/23 07:48:32;;;;;;;1.20;1.20;;;;;;;25.02;78.21;95771.22;4318793;32;20193;-65
2023/08/23 07:51:04;;;;;;;5.97;3.20;;;;;;;25.04;78.21;95775.12;4335477;32;20205;-63
2023/08/23 07:53:31;;;;;;;4.23;3.83;;;;;;;24.99;78.06;95767.31;4293753;32;20220;-60
2023/08/23 07:56:07;;;;;;;2.00;1.90;;;;;;;25.05;77.64;95771.25;4324978;32;20216;-58
2023/08/23 07:58:33;;;;;;;1.60;1.57;;;;;;;25.12;77.23;95765.09;4314444;32;20190;-58
2023/08/23 08:01:00;;;;;;;3.07;1.63;;;;;;;25.18;76.74;95764.34;4310418;32;20190;-58
2023/08/23 08:03:28;;;;;;;6.03;1.13;;;;;;;25.35;75.22;95757.53;4329942;32;20208;-57
2023/08/23 08:06:02;;;;;;;1.57;1.50;;;;;;;25.39;75.41;95757.53;4327751;32;20198;-58
2023/08/23 08:08:28;;;;;;;1.33;1.33;;;;;;;25.40;75.47;95759.09;4304205;32;20228;-58
2023/08/23 08:10:55;;;;;;;1.53;1.47;;;;;;;25.41;75.77;95764.16;4345069;32;20189;-58
2023/08/23 08:13:23;;;;;;;3.43;1.83;;;;;;;25.48;74.74;95757.97;4331636;32;20200;-58
2023/08/23 08:15:50;;;;;;;0.87;0.87;;;;;;;25.55;74.20;95758.81;4313436;32;20250;-57
2023/08/23 08:18:15;;;;;;;1.23;1.23;;;;;;;25.60;74.54;95760.38;4299951;32;20213;-58
2023/08/23 08:20:42;;;;;;;1.40;1.40;;;;;;;25.63;74.82;95763.16;4341819;32;20248;-58
2023/08/23 08:23:09;;;;;;;1.47;1.47;;;;;;;25.62;75.08;95767.03;4577101;28;20235;-59
2023/08/23 08:25:36;;;;;;;1.70;1.60;;;;;;;25.73;73.25;95758.94;4270652;33;20237;-58
2023/08/23 08:28:04;;;;;;;1.77;1.67;;;;;;;25.78;73.19;95761.28;4304977;32;20205;-59
2023/08/23 08:30:33;;;;;;;1.40;1.30;;;;;;;25.82;73.05;95764.81;4308149;33;20217;-58
2023/08/23 08:33:01;;;;;;;1.70;1.60;;;;;;;25.84;71.99;95759.78;4298218;32;20241;-58
2023/08/23 08:35:28;;;;;;;1.63;1.63;;;;;;;25.90;72.46;95752.81;4265915;32;20231;-58
2023/08/23 08:37:53;;;;;;;1.27;1.27;;;;;;;25.99;71.51;95747.78;4309507;32;20205;-58
2023/08/23 08:40:22;;;;;;;1.40;1.40;;;;;;;26.08;71.49;95757.56;4313603;32;20272;-58
2023/08/23 08:42:54;;;;;;;0.70;0.70;;;;;;;26.12;70.60;95761.84;4318166;33;20221;-59
2023/08/23 08:45:21;;;;;;;1.27;1.17;;;;;;;26.12;70.30;95769.25;4294122;32;20295;-60
2023/08/23 08:47:49;;;;;;;1.67;1.57;;;;;;;26.08;70.69;95763.78;4284665;32;20305;-58
2023/08/23 08:50:15;;;;;;;1.33;1.27;;;;;;;26.01;71.34;95759.06;4303473;32;20260;-58
2023/08/23 08:52:48;;;;;;;1.33;1.33;;;;;;;26.19;70.13;95761.09;4322916;32;20228;-60
2023/08/23 08:55:16;;;;;;;3.83;1.90;;;;;;;26.19;70.18;95763.81;4298287;33;20197;-59
2023/08/23 08:57:43;;;;;;;1.47;1.47;;;;;;;26.12;71.00;95758.34;4300115;33;20213;-58
2023/08/23 09:00:10;;;;;;;1.70;1.60;;;;;;;25.96;72.25;95747.81;4304853;32;20191;-59
2023/08/23 09:02:38;;;;;;;1.67;1.57;;;;;;;25.65;74.04;95755.41;4325969;32;20220;-59
2023/08/23 09:05:05;;;;;;;1.37;1.30;;;;;;;25.63;73.81;95752.28;4318154;33;20216;-59
2023/08/23 09:07:32;;;;;;;0.87;0.87;;;;;;;25.61;73.66;95751.06;4318470;32;20245;-60
2023/08/23 09:09:59;;;;;;;1.60;1.50;;;;;;;25.92;71.04;95747.00;4293913;32;20214;-60
2023/08/23 09:12:26;;;;;;;1.63;1.53;;;;;;;26.19;70.04;95750.19;4307712;33;20189;-60
2023/08/23 09:14:53;;;;;;;1.10;1.10;;;;;;;26.42;68.60;95742.53;4322569;32;20192;-60
2023/08/23 09:17:32;;;;;;;5.07;2.47;;;;;;;26.35;69.52;95743.31;4310467;32;20198;-61
2023/08/23 09:20:16;;;;;;;1.97;1.87;;;;;;;26.46;68.76;95737.09;4294624;33;20200;-61
2023/08/23 09:22:42;;;;;;;1.63;1.63;;;;;;;26.51;68.37;95739.47;4322795;33;20200;-61
2023/08/23 09:25:12;;;;;;;4.73;4.40;;;;;;;26.56;67.98;95741.81;4316117;33;20198;-59
2023/08/23 09:27:39;;;;;;;11.97;10.03;;;;;;;26.59;67.68;95739.09;4288645;33;20262;-59
2023/08/23 09:30:17;;;;;;;2.23;2.13;;;;;;;26.75;67.18;95738.72;4291458;33;20186;-60
2023/08/23 09:32:43;;;;;;;1.20;1.20;;;;;;;26.82;66.16;95736.00;4312771;33;20190;-60
2023/08/23 09:35:27;;;;;;;4.93;3.60;;;;;;;26.81;66.45;95733.69;4290875;33;20242;-59
2023/08/23 09:37:54;;;;;;;2.00;1.90;;;;;;;26.87;66.18;95734.84;4300791;32;20198;-59
2023/08/23 09:40:28;;;;;;;16.70;9.83;;;;;;;26.98;65.35;95736.44;4333522;32;20295;-60
2023/08/23 09:42:56;;;;;;;4.60;4.30;;;;;;;27.21;64.79;95738.78;4305034;33;20210;-60
2023/08/23 09:45:23;;;;;;;4.17;3.87;;;;;;;27.25;65.38;95736.03;4332655;32;20189;-60
2023/08/23 09:48:07;;;;;;;1.50;1.50;;;;;;;27.04;66.04;95739.53;4304714;32;20212;-60
2023/08/23 09:50:37;;;;;;;2.60;2.40;;;;;;;27.12;63.94;95730.22;4301397;32;20206;-59
2023/08/23 09:53:14;;;;;;;3.87;2.80;;;;;;;27.05;65.08;95735.66;4300836;32;20212;-60
2023/08/23 09:55:51;;;;;;;2.63;2.43;;;;;;;26.82;67.65;95727.03;4307570;33;20214;-60
2023/08/23 09:58:23;;;;;;;2.47;2.37;;;;;;;26.64;67.83;95725.09;4318336;33;20207;-60
2023/08/23 10:00:50;;;;;;;1.33;1.33;;;;;;;26.71;68.17;95721.59;4330752;32;20194;-59
2023/08/23 10:03:40;;;;;;;1.23;1.20;;;;;;;26.85;66.38;95720.81;4293198;33;20257;-59
2023/08/23 10:06:09;;;;;;;1.43;1.43;;;;;;;26.93;65.89;95727.84;4293439;33;20208;-60
2023/08/23 10:08:38;;;;;;;1.30;1.20;;;;;;;26.98;65.09;95719.31;4283779;33;20246;-60
2023/08/23 10:11:07;;;;;;;4.10;1.77;;;;;;;27.20;64.32;95720.09;4292612;33;20220;-59
2023/08/23 10:13:39;;;;;;;0.97;0.97;;;;;;;27.24;64.50;95718.91;4330752;32;20220;-62
2023/08/23 10:16:12;;;;;;;0.83;0.83;;;;;;;27.24;64.50;95721.62;4330985;33;20197;-59
2023/08/23 10:18:40;;;;;;;1.37;1.37;;;;;;;27.36;64.15;95720.44;4316425;33;20237;-59
2023/08/23 10:21:05;;;;;;;0.93;0.93;;;;;;;27.07;65.41;95718.91;4327052;33;20259;-59
2023/08/23 10:23:33;;;;;;;1.13;1.13;;;;;;;27.04;64.22;95704.91;4328884;32;20206;-61
2023/08/23 10:25:59;;;;;;;1.83;1.73;;;;;;;27.22;64.35;95713.09;4319353;32;20190;-59
2023/08/23 10:28:28;;;;;;;1.00;1.00;;;;;;;27.23;64.34;95711.88;4315134;32;20197;-59
2023/08/23 10:30:59;;;;;;;1.60;1.60;;;;;;;27.36;63.28;95712.28;4313617;32;20310;-60
2023/08/23 10:33:26;;;;;;;7.07;2.13;;;;;;;27.46;62.05;95711.47;4280994;32;20190;-59
2023/08/23 10:35:52;;;;;;;1.63;1.53;;;;;;;27.15;65.57;95707.63;4305250;32;20193;-60
2023/08/23 10:38:44;;;;;;;1.37;1.37;;;;;;;26.92;65.87;95707.22;4312433;33;20216;-59
2023/08/23 10:41:19;;;;;;;1.27;1.27;;;;;;;26.75;66.30;95699.81;4303771;33;20190;-59
2023/08/23 10:43:53;;;;;;;0.70;0.70;;;;;;;26.72;65.76;95701.38;4321612;32;20263;-59
2023/08/23 10:46:30;;;;;;;0.83;0.83;;;;;;;26.72;nan;95700.59;4304653;33;20189;-64
2023/08/23 10:49:00;;;;;;;0.57;0.57;;;;;;;26.62;66.64;95700.19;4282944;32;20199;-65
2023/08/23 10:51:28;;;;;;;1.30;1.23;;;;;;;26.69;66.26;95707.59;4281060;33;20200;-64
2023/08/23 10:54:01;;;;;;;3.20;1.40;;;;;;;26.58;66.66;95704.88;4295871;32;20241;-65
2023/08/23 10:56:28;;;;;;;1.07;1.07;;;;;;;27.38;63.13;95710.72;4321136;33;20194;-64
2023/08/23 10:58:55;;;;;;;2.20;1.47;;;;;;;27.14;64.51;95706.06;4293022;32;20182;-62
2023/08/23 11:01:23;;;;;;;1.53;1.43;;;;;;;27.09;64.99;95701.00;4324847;33;20315;-62
2023/08/23 11:03:51;;;;;;;1.73;1.73;;;;;;;27.27;63.65;95699.03;4312967;33;20217;-64
2023/08/23 11:06:20;;;;;;;4.83;3.80;;;;;;;27.09;64.64;95698.28;4314838;32;20201;-63
2023/08/23 11:08:51;;;;;;;3.13;2.93;;;;;;;27.20;64.20;95703.75;4275710;32;20329;-63
2023/08/23 11:11:18;;;;;;;3.63;3.37;;;;;;;27.15;64.69;95698.69;4308284;32;20194;-62
2023/08/23 11:13:46;;;;;;;4.10;3.90;;;;;;;26.99;65.72;95699.88;4278955;32;20240;-62
2023/08/23 11:16:11;;;;;;;1.50;1.50;;;;;;;26.87;66.30;95694.75;4309520;32;20197;-62
2023/08/23 11:18:41;;;;;;;1.63;1.57;;;;;;;26.62;67.57;95689.28;4313908;32;20228;-61
2023/08/23 11:21:07;;;;;;;2.10;2.00;;;;;;;26.73;67.31;95691.25;4327068;32;20256;-62
2023/08/23 11:23:37;;;;;;;2.63;2.43;;;;;;;26.98;66.12;95690.12;4317563;33;20197;-64
2023/08/23 11:26:07;;;;;;;1.73;1.73;;;;;;;26.87;66.70;95685.81;4318151;32;20194;-61
2023/08/23 11:28:37;;;;;;;1.60;1.53;;;;;;;27.35;64.66;95689.69;4312143;32;20225;-61
2023/08/23 11:31:08;;;;;;;1.57;1.47;;;;;;;27.06;65.64;95677.28;4309224;32;20244;-62
2023/08/23 11:33:39;;;;;;;3.00;2.60;;;;;;;27.16;63.92;95687.41;4311805;32;20250;-62
2023/08/23 11:36:20;;;;;;;53.87;41.60;;;;;;;27.45;62.72;95684.59;4297195;33;20197;-62
2023/08/23 11:38:53;;;;;;;7.27;6.63;;;;;;;27.96;60.85;95678.63;4326924;33;20204;-62
2023/08/23 11:41:32;;;;;;;30.70;27.20;;;;;;;27.67;62.33;95688.84;4313533;33;20193;-62